Yidu, China
Current Conditions -  °F | °C
As of 5:00 PM on Friday 28 Nov 2014 (Local Time) from ZSJN Reporting Station
Scattered Clouds Scattered Clouds  
Wind Chill: 45°   Ceiling: Unl
Heat Index: 45°   Visibility: 4mi
Dew Point: 36°   Wind: 2mph
Humidity: 71%   Direction: NA
Pressure: 30.15"   Gusts: NA
Location:  36.68°N, 118.47°E
Report Text: ZSJN 280900Z VRB01MPS 7000 SCT020 07/02 Q1021 NOSIG
Loading
Personal Weather Stations






























Interactive Weather Map New forecast layout! Learn more

10-Day Weather Forecast

Advertisements
Track Severe Weather on mobile